createdAt,value
2022-08-18T00:01:43.236Z,1.00
2022-08-18T00:04:34.973Z,1.00
2022-08-18T00:07:01.736Z,1.00
2022-08-18T00:09:32.490Z,1.00
2022-08-18T00:12:02.996Z,1.00
2022-08-18T00:14:31.336Z,1.00
2022-08-18T00:16:59.392Z,1.00
2022-08-18T00:19:47.619Z,1.00
2022-08-18T00:22:19.708Z,1.00
2022-08-18T00:24:50.131Z,1.00
2022-08-18T00:27:23.362Z,1.00
2022-08-18T00:29:53.406Z,1.00
2022-08-18T00:32:23.869Z,1.00
2022-08-18T00:34:52.305Z,1.00
2022-08-18T00:37:22.041Z,1.00
2022-08-18T00:39:53.420Z,1.00
2022-08-18T00:42:29.158Z,1.00
2022-08-18T00:45:02.775Z,1.00
2022-08-18T00:47:36.472Z,1.00
2022-08-18T00:50:15.200Z,1.00
2022-08-18T00:52:50.898Z,1.00
2022-08-18T00:55:21.248Z,1.00
2022-08-18T00:57:54.889Z,1.00
2022-08-18T01:00:23.136Z,1.00
2022-08-18T01:02:57.581Z,1.00
2022-08-18T01:05:33.843Z,1.00
2022-08-18T01:08:04.626Z,1.00
2022-08-18T01:10:35.187Z,1.00
2022-08-18T01:13:03.801Z,1.00
2022-08-18T01:15:32.868Z,1.00
2022-08-18T01:18:21.976Z,1.00
2022-08-18T01:21:16.276Z,1.00
2022-08-18T01:23:46.966Z,1.00
2022-08-18T01:26:16.829Z,1.00
2022-08-18T01:28:46.450Z,1.00
2022-08-18T01:31:32.757Z,1.00
2022-08-18T01:34:01.336Z,1.00
2022-08-18T01:36:30.291Z,1.00
2022-08-18T01:39:00.628Z,1.00
2022-08-18T01:41:31.004Z,1.00
2022-08-18T01:44:01.231Z,1.00
2022-08-18T01:46:31.718Z,1.00
2022-08-18T01:49:01.129Z,1.00
2022-08-18T01:51:36.634Z,1.00
2022-08-18T01:54:11.776Z,1.00
2022-08-18T01:56:40.756Z,1.00
2022-08-18T01:59:14.644Z,1.00
2022-08-18T02:01:50.549Z,1.00
2022-08-18T02:04:40.849Z,1.00
2022-08-18T02:07:11.621Z,1.00
2022-08-18T02:09:42.823Z,1.00
2022-08-18T02:12:11.926Z,1.00
2022-08-18T02:14:40.843Z,1.00
2022-08-18T02:17:11.260Z,1.00
2022-08-18T02:19:41.598Z,1.00
2022-08-18T02:22:11.333Z,1.00
2022-08-18T02:24:40.944Z,1.00
2022-08-18T02:27:10.826Z,1.00
2022-08-18T02:29:39.120Z,1.00
2022-08-18T02:32:07.806Z,1.00
2022-08-18T02:34:35.901Z,1.00
2022-08-18T02:37:04.422Z,1.00
2022-08-18T02:39:34.721Z,1.00
2022-08-18T02:42:04.911Z,1.00
2022-08-18T02:44:33.471Z,1.00
2022-08-18T02:47:01.790Z,1.00
2022-08-18T02:49:29.960Z,1.00
2022-08-18T02:51:58.062Z,1.00
2022-08-18T02:54:26.709Z,1.00
2022-08-18T02:56:57.156Z,1.00
2022-08-18T02:59:31.935Z,1.00
2022-08-18T03:02:01.701Z,1.00
2022-08-18T03:04:33.284Z,1.00
2022-08-18T03:07:03.854Z,1.00
2022-08-18T03:09:32.786Z,1.00
2022-08-18T03:12:01.237Z,1.00
2022-08-18T03:14:30.923Z,1.00
2022-08-18T03:16:59.794Z,1.00
2022-08-18T03:19:29.675Z,1.00
2022-08-18T03:22:03.098Z,1.00
2022-08-18T03:24:33.172Z,1.00
2022-08-18T03:27:02.573Z,1.00
2022-08-18T03:29:33.044Z,1.00
2022-08-18T03:32:02.118Z,1.00
2022-08-18T03:34:31.574Z,1.00
2022-08-18T03:36:59.584Z,1.00
2022-08-18T03:39:28.639Z,1.00
2022-08-18T03:42:00.960Z,1.00
2022-08-18T03:44:32.991Z,1.00
2022-08-18T03:47:02.994Z,1.00
2022-08-18T03:49:31.352Z,1.00
2022-08-18T03:52:00.982Z,1.00
2022-08-18T03:54:31.962Z,1.00
2022-08-18T03:57:00.566Z,1.00
2022-08-18T03:59:31.750Z,1.00
2022-08-18T04:02:04.674Z,1.00
2022-08-18T04:04:33.206Z,1.00
2022-08-18T04:07:04.712Z,1.00
2022-08-18T04:09:34.454Z,1.00
2022-08-18T04:12:10.373Z,1.00
2022-08-18T04:14:46.534Z,1.00
2022-08-18T04:17:16.096Z,1.00
2022-08-18T04:19:43.987Z,1.00
2022-08-18T04:22:17.157Z,1.00
2022-08-18T04:24:46.363Z,1.00
2022-08-18T04:27:14.544Z,1.00
2022-08-18T04:29:42.575Z,1.00
2022-08-18T04:32:10.628Z,1.00
2022-08-18T04:34:39.992Z,1.00
2022-08-18T04:37:09.650Z,1.00
2022-08-18T04:39:37.898Z,1.00
2022-08-18T04:42:06.363Z,1.00
2022-08-18T04:44:34.450Z,1.00
2022-08-18T04:47:02.849Z,1.00
2022-08-18T04:49:32.067Z,1.00
2022-08-18T04:52:36.865Z,1.00
2022-08-18T04:55:07.925Z,1.00
2022-08-18T04:57:35.999Z,1.00
2022-08-18T05:00:07.423Z,1.00
2022-08-18T05:02:35.633Z,1.00
2022-08-18T05:05:04.572Z,1.00
2022-08-18T05:07:34.437Z,1.00
2022-08-18T05:10:02.544Z,1.00
2022-08-18T05:12:30.732Z,1.00
2022-08-18T05:14:58.832Z,1.00
2022-08-18T05:17:29.090Z,1.00
2022-08-18T05:19:59.942Z,1.00
2022-08-18T05:22:31.794Z,1.00
2022-08-18T05:25:01.658Z,1.00
2022-08-18T05:27:33.969Z,1.00
2022-08-18T05:30:02.570Z,1.00
2022-08-18T05:32:47.998Z,1.00
2022-08-18T05:35:21.847Z,1.00
2022-08-18T05:38:02.018Z,1.00
2022-08-18T05:40:31.868Z,1.00
2022-08-18T05:43:01.316Z,1.00
2022-08-18T05:45:29.423Z,1.00
2022-08-18T05:48:01.185Z,1.00
2022-08-18T05:50:30.904Z,1.00
2022-08-18T05:53:02.163Z,1.00
2022-08-18T05:55:53.068Z,1.00
2022-08-18T05:58:32.879Z,1.00
2022-08-18T06:01:05.478Z,1.00
2022-08-18T06:03:45.488Z,1.00
2022-08-18T06:06:19.410Z,1.00
2022-08-18T06:08:57.239Z,1.00
2022-08-18T06:11:26.794Z,1.00
2022-08-18T06:13:59.111Z,1.00
2022-08-18T06:16:50.038Z,1.00
2022-08-18T06:19:39.025Z,1.00
2022-08-18T06:22:16.729Z,1.00
2022-08-18T06:24:52.606Z,1.00
2022-08-18T06:27:31.055Z,1.00
2022-08-18T06:30:07.050Z,1.00
2022-08-18T06:32:53.262Z,1.00
2022-08-18T06:35:30.850Z,1.00
2022-08-18T06:38:29.311Z,1.00
2022-08-18T06:41:03.974Z,1.00
2022-08-18T06:43:35.297Z,1.00
2022-08-18T06:46:09.093Z,1.00
2022-08-18T06:48:42.144Z,1.00
2022-08-18T06:51:13.570Z,1.00
2022-08-18T06:53:53.207Z,1.00
2022-08-18T06:56:26.013Z,1.00
2022-08-18T06:59:14.201Z,1.00
2022-08-18T07:01:43.093Z,1.00
2022-08-18T07:04:11.234Z,1.00
2022-08-18T07:06:39.308Z,1.00
2022-08-18T07:09:21.768Z,1.00
2022-08-18T07:12:06.615Z,1.00
2022-08-18T07:14:46.555Z,1.00
2022-08-18T07:17:22.170Z,1.00
2022-08-18T07:20:08.328Z,1.00
2022-08-18T07:22:55.152Z,1.00
2022-08-18T07:25:28.188Z,1.00
2022-08-18T07:27:57.177Z,1.00
2022-08-18T07:30:37.025Z,1.00
2022-08-18T07:33:14.660Z,1.00
2022-08-18T07:35:49.182Z,1.00
2022-08-18T07:38:42.083Z,1.00
2022-08-18T07:41:17.263Z,1.00
2022-08-18T07:44:00.583Z,1.00
2022-08-18T07:46:36.464Z,1.00
2022-08-18T07:49:06.388Z,1.00
2022-08-18T07:51:47.637Z,1.00
2022-08-18T07:54:49.536Z,1.00
2022-08-18T07:57:28.253Z,1.00
2022-08-18T08:00:23.132Z,1.00
2022-08-18T08:03:18.909Z,1.00
2022-08-18T08:05:54.252Z,1.00
2022-08-18T08:08:27.179Z,1.00
2022-08-18T08:11:06.162Z,1.00
2022-08-18T08:13:54.850Z,1.00
2022-08-18T08:16:36.220Z,1.00
2022-08-18T08:19:36.550Z,1.00
2022-08-18T08:22:16.195Z,1.00
2022-08-18T08:24:54.918Z,1.00
2022-08-18T08:27:28.423Z,1.00
2022-08-18T08:30:03.002Z,1.00
2022-08-18T08:32:34.665Z,1.00
2022-08-18T08:35:47.364Z,1.00
2022-08-18T08:38:36.681Z,1.00
2022-08-18T08:40:55.624Z,1.00
2022-08-18T08:43:30.874Z,1.00
2022-08-18T08:46:08.187Z,1.00
2022-08-18T08:48:42.366Z,1.00
2022-08-18T08:51:30.109Z,1.00
2022-08-18T08:54:03.443Z,1.00
2022-08-18T08:56:35.981Z,1.00
2022-08-18T08:59:07.813Z,1.00
2022-08-18T09:01:43.519Z,1.00
2022-08-18T09:04:24.471Z,1.00
2022-08-18T09:07:07.454Z,1.00
2022-08-18T09:09:56.164Z,1.00
2022-08-18T09:12:36.443Z,1.00
2022-08-18T09:15:38.138Z,1.00
2022-08-18T09:18:25.691Z,1.00
2022-08-18T09:21:07.162Z,1.00
2022-08-18T09:23:42.269Z,1.00
2022-08-18T09:26:40.438Z,1.00
2022-08-18T09:29:26.103Z,1.00
2022-08-18T09:32:39.820Z,1.00
2022-08-18T09:35:27.068Z,1.00
2022-08-18T09:38:20.497Z,1.00
2022-08-18T09:41:11.524Z,1.00
2022-08-18T09:43:53.325Z,1.00
2022-08-18T09:46:53.861Z,1.00
2022-08-18T09:52:59.193Z,1.00
2022-08-18T09:55:59.281Z,1.00
2022-08-18T09:58:50.324Z,1.00
2022-08-18T10:01:32.738Z,1.00
2022-08-18T10:04:30.557Z,1.00
2022-08-18T10:07:18.185Z,1.00
2022-08-18T10:10:03.405Z,1.00
2022-08-18T10:13:06.446Z,1.00
2022-08-18T10:15:42.390Z,1.00
2022-08-18T10:18:27.441Z,1.00
2022-08-18T10:21:04.800Z,1.00
2022-08-18T10:27:13.272Z,1.00
2022-08-18T10:29:52.041Z,1.00
2022-08-18T10:32:40.326Z,1.00
2022-08-18T10:35:52.159Z,1.00
2022-08-18T10:38:46.086Z,1.00
2022-08-18T10:41:30.627Z,1.00
2022-08-18T10:44:01.243Z,1.00
2022-08-18T10:46:39.614Z,1.00
2022-08-18T10:49:27.254Z,1.00
2022-08-18T10:52:37.953Z,1.00
2022-08-18T10:55:49.078Z,1.00
2022-08-18T10:58:38.169Z,1.00
2022-08-18T11:01:20.581Z,1.00
2022-08-18T11:04:14.039Z,1.00
2022-08-18T11:07:07.970Z,1.00
2022-08-18T11:09:36.949Z,1.00
2022-08-18T11:12:12.413Z,1.00
2022-08-18T11:15:22.623Z,1.00
2022-08-18T11:18:10.446Z,1.00
2022-08-18T11:20:43.255Z,1.00
2022-08-18T11:23:15.968Z,1.00
2022-08-18T11:25:45.787Z,1.00
2022-08-18T11:28:18.646Z,1.00
2022-08-18T11:30:49.603Z,1.00
2022-08-18T11:33:23.270Z,1.00
2022-08-18T11:35:58.501Z,1.00
2022-08-18T11:38:31.123Z,1.00
2022-08-18T11:41:14.228Z,1.00
2022-08-18T11:43:47.645Z,1.00
2022-08-18T11:46:28.014Z,1.00
2022-08-18T11:48:58.219Z,1.00
2022-08-18T11:51:33.508Z,1.00
2022-08-18T11:54:04.898Z,1.00
2022-08-18T11:56:35.726Z,1.00
2022-08-18T11:59:07.965Z,1.00
2022-08-18T12:01:48.586Z,1.00
2022-08-18T12:04:24.758Z,1.00
2022-08-18T12:07:02.185Z,1.00
2022-08-18T12:10:17.838Z,1.00
2022-08-18T12:12:32.551Z,1.00
2022-08-18T12:15:10.479Z,1.00
2022-08-18T12:17:52.233Z,1.00
2022-08-18T12:20:21.849Z,1.00
2022-08-18T12:22:56.653Z,1.00
2022-08-18T12:25:25.849Z,1.00
2022-08-18T12:27:54.147Z,1.00
2022-08-18T12:30:22.175Z,1.00
2022-08-18T12:32:55.502Z,1.00
2022-08-18T12:35:24.746Z,1.00
2022-08-18T12:40:45.531Z,1.00
2022-08-18T12:43:14.303Z,1.00
2022-08-18T12:45:42.961Z,1.00
2022-08-18T12:48:11.905Z,1.00
2022-08-18T12:50:54.570Z,1.00
2022-08-18T12:53:58.368Z,1.00
2022-08-18T12:56:37.549Z,1.00
2022-08-18T12:59:09.030Z,1.00
2022-08-18T13:01:39.909Z,1.00
2022-08-18T13:07:01.963Z,1.00
2022-08-18T13:09:53.223Z,1.00
2022-08-18T13:12:24.163Z,1.00
2022-08-18T13:14:58.178Z,1.00
2022-08-18T13:17:34.477Z,1.00
2022-08-18T13:20:06.547Z,1.00
2022-08-18T13:22:40.957Z,1.00
2022-08-18T13:25:32.164Z,1.00
2022-08-18T13:28:03.929Z,1.00
2022-08-18T13:30:36.097Z,1.00
2022-08-18T13:33:33.773Z,1.00
2022-08-18T13:35:54.792Z,1.00
2022-08-18T13:38:26.184Z,1.00
2022-08-18T13:41:00.480Z,1.00
2022-08-18T13:43:32.101Z,1.00
2022-08-18T13:46:01.375Z,1.00
2022-08-18T13:48:29.789Z,1.00
2022-08-18T13:51:05.466Z,1.00
2022-08-18T13:53:50.610Z,1.00
2022-08-18T13:56:20.850Z,1.00
2022-08-18T13:58:59.767Z,1.00
2022-08-18T14:01:51.604Z,1.00
2022-08-18T14:04:19.962Z,1.00
2022-08-18T14:06:56.165Z,1.00
2022-08-18T14:09:36.247Z,1.00
2022-08-18T14:12:22.535Z,1.00
2022-08-18T14:14:52.478Z,1.00
2022-08-18T14:17:34.820Z,1.00
2022-08-18T14:20:24.083Z,1.00
2022-08-18T14:23:22.825Z,1.00
2022-08-18T14:26:13.333Z,1.00
2022-08-18T14:29:11.305Z,1.00
2022-08-18T14:31:46.035Z,1.00
2022-08-18T14:34:15.431Z,1.00
2022-08-18T14:36:57.062Z,1.00
2022-08-18T14:39:27.606Z,1.00
2022-08-18T14:42:04.682Z,1.00
2022-08-18T14:44:34.671Z,1.00
2022-08-18T14:47:06.085Z,1.00
2022-08-18T14:49:35.632Z,1.00
2022-08-18T14:52:13.951Z,1.00
2022-08-18T14:54:46.300Z,1.00
2022-08-18T14:59:57.370Z,1.00
2022-08-18T15:02:27.055Z,1.00
2022-08-18T15:04:58.109Z,1.00
2022-08-18T15:07:26.380Z,1.00
2022-08-18T15:10:14.795Z,1.00
2022-08-18T15:12:43.590Z,1.00
2022-08-18T15:15:18.098Z,1.00
2022-08-18T15:18:22.496Z,1.00
2022-08-18T15:21:19.560Z,1.00
2022-08-18T15:24:20.716Z,1.00
2022-08-18T15:26:51.822Z,1.00
2022-08-18T15:29:28.012Z,1.00
2022-08-18T15:32:11.725Z,1.00
2022-08-18T15:34:52.661Z,1.00
2022-08-18T15:37:22.221Z,1.00
2022-08-18T15:40:30.195Z,1.00
2022-08-18T15:43:03.939Z,1.00
2022-08-18T15:45:37.665Z,1.00
2022-08-18T15:48:12.504Z,1.00
2022-08-18T15:50:42.852Z,1.00
2022-08-18T15:53:40.036Z,1.00
2022-08-18T15:56:16.028Z,1.00
2022-08-18T15:58:49.101Z,1.00
2022-08-18T16:01:33.075Z,2.50
2022-08-18T16:04:16.933Z,3.50
2022-08-18T16:06:50.922Z,6.80
2022-08-18T16:09:21.181Z,7.60
2022-08-18T16:11:50.304Z,10.00
2022-08-18T16:14:33.001Z,10.30
2022-08-18T16:17:23.670Z,11.50
2022-08-18T16:19:58.390Z,11.90
2022-08-18T16:22:28.075Z,13.10
2022-08-18T16:25:10.486Z,14.00
2022-08-18T16:27:41.768Z,13.70
2022-08-18T16:30:15.236Z,14.70
2022-08-18T16:32:43.547Z,15.10
2022-08-18T16:35:12.368Z,14.70
2022-08-18T16:37:58.237Z,15.70
2022-08-18T16:40:28.001Z,16.60
2022-08-18T16:43:04.913Z,16.20
2022-08-18T16:45:34.547Z,17.50
2022-08-18T16:48:02.899Z,14.10
2022-08-18T16:50:31.201Z,15.10
2022-08-18T16:53:40.244Z,16.40
2022-08-18T16:56:16.368Z,17.50
2022-08-18T16:59:01.994Z,15.20
2022-08-18T17:01:48.958Z,15.30
2022-08-18T17:04:22.433Z,12.30
2022-08-18T17:06:52.996Z,13.80
2022-08-18T17:09:23.383Z,12.80
2022-08-18T17:12:09.803Z,13.80
2022-08-18T17:14:39.197Z,12.40
2022-08-18T17:17:07.655Z,12.20
2022-08-18T17:19:44.006Z,12.10
2022-08-18T17:22:13.492Z,10.30
2022-08-18T17:24:56.252Z,6.20
2022-08-18T17:27:46.138Z,3.40
2022-08-18T17:30:21.470Z,4.40
2022-08-18T17:32:58.041Z,1.20
2022-08-18T17:35:35.727Z,1.00
2022-08-18T17:38:23.315Z,1.00
2022-08-18T17:40:55.859Z,1.00
2022-08-18T17:43:29.127Z,1.00
2022-08-18T17:46:01.256Z,1.00
2022-08-18T17:48:33.468Z,2.00
2022-08-18T17:51:25.479Z,2.60
2022-08-18T17:53:53.880Z,2.50
2022-08-18T17:56:41.341Z,1.00
2022-08-18T17:59:46.144Z,1.00
2022-08-18T18:02:29.460Z,1.00
2022-08-18T18:04:59.703Z,1.00
2022-08-18T18:07:30.869Z,1.00
2022-08-18T18:10:01.583Z,1.10
2022-08-18T18:12:32.506Z,1.00
2022-08-18T18:15:31.466Z,1.00
2022-08-18T18:18:35.353Z,1.00
2022-08-18T18:21:07.215Z,1.00
2022-08-18T18:23:41.313Z,1.00
2022-08-18T18:26:28.314Z,1.00
2022-08-18T18:29:20.207Z,1.00
2022-08-18T18:31:58.479Z,1.00
2022-08-18T18:34:59.715Z,1.00
2022-08-18T18:37:32.395Z,1.00
2022-08-18T18:40:04.008Z,1.00
2022-08-18T18:42:38.014Z,1.00
2022-08-18T18:45:13.744Z,1.00
2022-08-18T18:47:50.345Z,1.00
2022-08-18T18:50:37.517Z,1.00
2022-08-18T18:53:18.805Z,1.00
2022-08-18T18:56:09.170Z,1.00
2022-08-18T18:59:05.705Z,1.00
2022-08-18T19:01:43.721Z,1.00
2022-08-18T19:04:19.260Z,1.00
2022-08-18T19:06:57.052Z,1.20
2022-08-18T19:09:36.984Z,2.30
2022-08-18T19:12:16.083Z,1.00
2022-08-18T19:14:59.539Z,1.00
2022-08-18T19:17:39.076Z,1.00
2022-08-18T19:20:12.255Z,1.00
2022-08-18T19:23:04.952Z,1.00
2022-08-18T19:25:38.453Z,1.00
2022-08-18T19:28:13.186Z,1.00
2022-08-18T19:30:51.829Z,1.00
2022-08-18T19:33:41.237Z,1.00
2022-08-18T19:36:33.556Z,1.00
2022-08-18T19:39:12.676Z,1.00
2022-08-18T19:41:49.348Z,1.00
2022-08-18T19:45:20.591Z,1.00
2022-08-18T19:48:14.025Z,1.00
2022-08-18T19:50:50.383Z,1.00
2022-08-18T19:53:40.215Z,1.00
2022-08-18T19:56:29.270Z,1.00
2022-08-18T19:59:21.638Z,1.00
2022-08-18T20:02:03.117Z,1.00
2022-08-18T20:04:48.925Z,1.00
2022-08-18T20:08:03.940Z,1.00
2022-08-18T20:11:02.990Z,1.00
2022-08-18T20:13:49.160Z,1.00
2022-08-18T20:16:43.483Z,1.00
2022-08-18T20:19:43.970Z,1.00
2022-08-18T20:22:29.268Z,1.00
2022-08-18T20:24:59.579Z,1.00
2022-08-18T20:27:44.567Z,1.00
2022-08-18T20:30:49.936Z,1.00
2022-08-18T20:33:37.342Z,1.00
2022-08-18T20:36:28.472Z,1.00
2022-08-18T20:39:12.926Z,2.20
2022-08-18T20:41:50.565Z,2.30
2022-08-18T20:45:06.336Z,2.50
2022-08-18T20:48:09.589Z,2.90
2022-08-18T20:51:25.078Z,1.00
2022-08-18T20:54:37.809Z,1.00
2022-08-18T20:57:13.568Z,1.00
2022-08-18T20:59:47.529Z,1.00
2022-08-18T21:02:48.769Z,1.00
2022-08-18T21:05:29.588Z,2.00
2022-08-18T21:08:20.500Z,1.20
2022-08-18T21:10:55.969Z,1.00
2022-08-18T21:13:38.349Z,1.20
2022-08-18T21:16:10.716Z,4.00
2022-08-18T21:18:40.210Z,1.00
2022-08-18T21:21:29.252Z,3.70
2022-08-18T21:23:59.767Z,7.60
2022-08-18T21:26:44.958Z,4.60
2022-08-18T21:29:14.329Z,1.00
2022-08-18T21:31:45.672Z,7.80
2022-08-18T21:34:18.291Z,11.30
2022-08-18T21:36:54.172Z,11.40
2022-08-18T21:39:22.906Z,2.50
2022-08-18T21:42:04.491Z,1.00
2022-08-18T21:44:46.443Z,14.10
2022-08-18T21:47:22.027Z,16.20
2022-08-18T21:49:59.925Z,8.00
2022-08-18T21:52:50.497Z,9.40
2022-08-18T21:55:34.088Z,7.70
2022-08-18T21:58:06.345Z,19.90
2022-08-18T22:00:37.263Z,11.00
2022-08-18T22:03:23.621Z,15.40
2022-08-18T22:06:03.764Z,21.40
2022-08-18T22:08:59.815Z,19.90
2022-08-18T22:12:00.511Z,29.80
2022-08-18T22:14:54.842Z,18.90
2022-08-18T22:17:35.154Z,29.20
2022-08-18T22:20:21.607Z,31.10
2022-08-18T22:23:08.910Z,48.20
2022-08-18T22:25:38.581Z,33.30
2022-08-18T22:28:06.762Z,28.80
2022-08-18T22:30:35.221Z,32.10
2022-08-18T22:33:08.963Z,31.60
2022-08-18T22:35:40.337Z,31.40
2022-08-18T22:41:26.628Z,38.90
2022-08-18T22:43:55.475Z,27.30
2022-08-18T22:46:25.284Z,28.70
2022-08-18T22:48:55.892Z,28.60
2022-08-18T22:51:42.954Z,29.40
2022-08-18T22:54:15.381Z,30.70
2022-08-18T22:57:01.253Z,36.20
2022-08-18T22:59:37.541Z,37.60
2022-08-18T23:02:26.295Z,36.30
2022-08-18T23:04:54.316Z,39.00
2022-08-18T23:07:23.701Z,40.10
2022-08-18T23:09:59.212Z,37.80
2022-08-18T23:15:48.104Z,41.60
2022-08-18T23:18:21.501Z,48.60
2022-08-18T23:20:53.266Z,48.80
2022-08-18T23:23:28.158Z,41.00
2022-08-18T23:26:16.236Z,37.40
2022-08-18T23:29:05.256Z,57.60
2022-08-18T23:31:49.630Z,42.30
2022-08-18T23:34:19.326Z,44.00
2022-08-18T23:36:52.745Z,41.30
2022-08-18T23:39:21.724Z,38.00
2022-08-18T23:41:50.427Z,43.90
2022-08-18T23:44:18.714Z,39.90
2022-08-18T23:46:48.198Z,54.00
2022-08-18T23:49:16.484Z,44.80
2022-08-18T23:51:48.869Z,62.10
2022-08-18T23:54:19.493Z,47.70
2022-08-18T23:56:49.094Z,59.10
2022-08-18T23:59:32.506Z,60.80
